»·PEaware :: QXE2853 KPDX-KSEA

QXE2853 :: KPDX-KSEA

FLIGHT INFORMATION

Flight Status: Arrived
Operator:
Horizon Air
More flights by this operator :: More flights under this callsign
Pilot: Henderson P. (1210)
Aircraft: DEHAVILLAND DASH 8 400
(DH8D)
More flights by this aircraft type
Origin: KPDX Portland Intl
United States
Destination: KSEA Seattle-Tacoma Intl
United States
More flights between these airports :: More routes between these airports
Route: +PTLD1 COUGA KRIEG HAWKZ7
File this flight plan on PilotEdge
Remarks:
Altitude:
(Current/Filed)
14,000ft
Speed:
(Current/Filed)
300kts
Departed: 01-Oct-20 02:06 PM
Arrived: 01-Oct-20 02:34 PM
Distance/Time
Traveled:
112nm/0:28
Distance/Time
To Go:
Arrived

Flight Plot

Page will automatically refresh every two minutes.

Flight plan parsing failed; only flown route is shown


Map Options




Map Legend


Flown Route
Filed Route
Departure Airport
Arrival Airport
Navaid (VOR, NDB)
Fix

Horizontal Profiles

Position Reports

Time Latitude Longitude Heading Altitude Ground
Speed
01-Oct-20 13:31 45.590598 -122.599444 197 37ft 0kts
01-Oct-20 13:32 45.590598 -122.599444 197 37ft 0kts
01-Oct-20 13:33 45.590598 -122.599444 197 37ft 0kts
01-Oct-20 13:34 45.590598 -122.599444 197 37ft 0kts
01-Oct-20 13:35 45.590598 -122.599444 197 37ft 0kts
01-Oct-20 13:36 45.590598 -122.599444 197 37ft 0kts
01-Oct-20 13:37 45.590598 -122.599444 197 37ft 0kts
01-Oct-20 13:38 45.590598 -122.599444 197 37ft 0kts
01-Oct-20 13:39 45.590598 -122.599444 197 37ft 0kts
01-Oct-20 13:40 45.590598 -122.599444 197 37ft 0kts
01-Oct-20 13:41 45.590598 -122.599444 197 37ft 0kts
01-Oct-20 13:42 45.590598 -122.599444 197 37ft 0kts
01-Oct-20 13:43 45.590598 -122.599444 197 37ft 0kts
01-Oct-20 13:44 45.590598 -122.599444 197 37ft 0kts
01-Oct-20 13:45 45.590598 -122.599444 197 37ft 0kts
01-Oct-20 13:46 45.590598 -122.599444 197 37ft 0kts
01-Oct-20 13:47 45.590598 -122.599444 197 37ft 0kts
01-Oct-20 13:48 45.590598 -122.599444 197 37ft 0kts
01-Oct-20 13:49 45.590598 -122.599444 197 37ft 0kts
01-Oct-20 13:50 45.590598 -122.599444 197 37ft 0kts
01-Oct-20 13:51 45.590598 -122.599444 197 37ft 0kts
01-Oct-20 13:52 45.590598 -122.599444 197 37ft 0kts
01-Oct-20 13:53 45.590598 -122.599444 197 37ft 0kts
01-Oct-20 13:54 45.590598 -122.599444 197 37ft 0kts
01-Oct-20 13:55 45.590598 -122.599444 197 37ft 0kts
01-Oct-20 13:56 45.591117 -122.599202 174 37ft 2kts
01-Oct-20 13:57 45.591385 -122.599924 88 38ft 0kts
01-Oct-20 13:58 45.591384 -122.599925 88 37ft 0kts
01-Oct-20 13:59 45.591512 -122.599115 56 37ft 11kts
01-Oct-20 14:00 45.592439 -122.592771 119 37ft 25kts
01-Oct-20 14:01 45.589104 -122.584209 119 37ft 23kts
01-Oct-20 14:02 45.585991 -122.576236 119 37ft 26kts
01-Oct-20 14:03 45.582726 -122.567879 109 37ft 11kts
01-Oct-20 14:04 45.583905 -122.567650 299 37ft 9kts
01-Oct-20 14:05 45.600812 -122.601579 322 1415ft 147kts
01-Oct-20 14:06 45.642494 -122.642335 326 3601ft 215kts
01-Oct-20 14:07 45.696067 -122.693979 325 5864ft 245kts
01-Oct-20 14:08 45.760688 -122.718406 4 8023ft 258kts
01-Oct-20 14:09 45.833088 -122.709328 3 9584ft 267kts
01-Oct-20 14:10 45.906893 -122.699999 3 11049ft 270kts
01-Oct-20 14:11 45.980634 -122.690760 3 12325ft 274kts
01-Oct-20 14:12 46.056284 -122.681317 2 13476ft 277kts
01-Oct-20 14:13 46.134114 -122.684544 348 13986ft 298kts
01-Oct-20 14:14 46.218480 -122.702368 350 13973ft 319kts
01-Oct-20 14:15 46.306182 -122.719451 350 13974ft 328kts
01-Oct-20 14:16 46.395953 -122.725700 357 13978ft 332kts
01-Oct-20 14:17 46.486388 -122.727913 356 13980ft 334kts
01-Oct-20 14:18 46.576945 -122.731352 355 13986ft 333kts
01-Oct-20 14:19 46.668838 -122.734716 355 13987ft 335kts
01-Oct-20 14:20 46.761093 -122.737642 359 13985ft 338kts
01-Oct-20 14:21 46.841813 -122.673186 39 12669ft 352kts
01-Oct-20 14:22 46.908795 -122.580579 44 10959ft 314kts
01-Oct-20 14:23 46.947843 -122.522158 46 9937ft 299kts
01-Oct-20 14:24 47.008932 -122.444605 29 8433ft 289kts
01-Oct-20 14:25 47.075978 -122.389600 29 7010ft 266kts
01-Oct-20 14:26 47.127833 -122.345720 30 5912ft 261kts
01-Oct-20 14:27 47.192840 -122.310091 1 4683ft 251kts
01-Oct-20 14:28 47.257558 -122.309526 0 3552ft 217kts
01-Oct-20 14:29 47.314265 -122.309196 0 2570ft 191kts
01-Oct-20 14:30 47.361462 -122.308531 0 1764ft 151kts
01-Oct-20 14:31 47.398591 -122.307853 357 1056ft 125kts
01-Oct-20 14:32 47.432876 -122.308056 357 454ft 122kts
01-Oct-20 14:33 47.449461 -122.307890 2 441ft 20kts
01-Oct-20 14:34 47.447859 -122.306301 180 441ft 15kts
01-Oct-20 14:35 47.444570 -122.306009 110 441ft 6kts
01-Oct-20 14:36 47.445076 -122.304794 90 441ft 0kts
01-Oct-20 14:37 47.445076 -122.304766 90 440ft 0kts
01-Oct-20 14:38 47.445076 -122.304766 90 440ft 0kts
01-Oct-20 14:39 47.445076 -122.304766 90 440ft 0kts

Navigation Log

Ident Type
Flight plan parsing failed, navigation log unavailable